sensor_id;sensor_type;location;lat;lon;timestamp;temperature;humidity
56878;DHT22;42765;44.764;19.676;2022-09-30T00:00:11;16.70;99.90
56878;DHT22;42765;44.764;19.676;2022-09-30T00:02:40;16.60;99.90
56878;DHT22;42765;44.764;19.676;2022-09-30T00:05:06;16.70;99.90
56878;DHT22;42765;44.764;19.676;2022-09-30T00:07:31;16.70;99.90
56878;DHT22;42765;44.764;19.676;2022-09-30T00:09:57;16.70;99.90
56878;DHT22;42765;44.764;19.676;2022-09-30T00:12:23;16.70;99.90
56878;DHT22;42765;44.764;19.676;2022-09-30T00:14:49;16.70;99.90
56878;DHT22;42765;44.764;19.676;2022-09-30T00:17:15;16.70;99.90
56878;DHT22;42765;44.764;19.676;2022-09-30T00:19:40;16.70;99.90
56878;DHT22;42765;44.764;19.676;2022-09-30T00:22:06;16.60;99.90
56878;DHT22;42765;44.764;19.676;2022-09-30T00:24:32;16.60;99.90
56878;DHT22;42765;44.764;19.676;2022-09-30T00:26:57;16.50;99.90
56878;DHT22;42765;44.764;19.676;2022-09-30T00:29:23;16.50;99.90
56878;DHT22;42765;44.764;19.676;2022-09-30T00:31:51;16.50;99.90
56878;DHT22;42765;44.764;19.676;2022-09-30T00:34:17;16.60;99.90
56878;DHT22;42765;44.764;19.676;2022-09-30T00:36:45;16.50;99.90
56878;DHT22;42765;44.764;19.676;2022-09-30T00:39:15;16.50;99.90
56878;DHT22;42765;44.764;19.676;2022-09-30T00:41:41;16.50;99.90
56878;DHT22;42765;44.764;19.676;2022-09-30T00:46:51;16.50;99.90
56878;DHT22;42765;44.764;19.676;2022-09-30T00:49:20;16.40;99.90
56878;DHT22;42765;44.764;19.676;2022-09-30T00:51:50;16.30;99.90
56878;DHT22;42765;44.764;19.676;2022-09-30T00:54:21;16.40;99.90
56878;DHT22;42765;44.764;19.676;2022-09-30T00:56:49;16.40;99.90
56878;DHT22;42765;44.764;19.676;2022-09-30T00:59:18;16.40;99.90
56878;DHT22;42765;44.764;19.676;2022-09-30T01:01:45;16.40;99.90
56878;DHT22;42765;44.764;19.676;2022-09-30T01:06:37;16.40;99.90
56878;DHT22;42765;44.764;19.676;2022-09-30T01:09:02;16.50;99.90
56878;DHT22;42765;44.764;19.676;2022-09-30T01:11:28;16.50;99.90
56878;DHT22;42765;44.764;19.676;2022-09-30T01:13:56;16.50;99.90
56878;DHT22;42765;44.764;19.676;2022-09-30T01:16:33;16.50;99.90
56878;DHT22;42765;44.764;19.676;2022-09-30T01:19:39;16.50;99.90
56878;DHT22;42765;44.764;19.676;2022-09-30T01:35:24;16.60;99.90
56878;DHT22;42765;44.764;19.676;2022-09-30T01:38:02;16.60;99.90
56878;DHT22;42765;44.764;19.676;2022-09-30T01:45:55;16.60;99.90
56878;DHT22;42765;44.764;19.676;2022-09-30T01:57:07;16.70;99.90
56878;DHT22;42765;44.764;19.676;2022-09-30T01:59:40;16.70;99.90
56878;DHT22;42765;44.764;19.676;2022-09-30T02:02:11;16.70;99.90
56878;DHT22;42765;44.764;19.676;2022-09-30T02:05:02;16.60;99.90
56878;DHT22;42765;44.764;19.676;2022-09-30T02:07:30;16.60;99.90
56878;DHT22;42765;44.764;19.676;2022-09-30T02:12:46;16.60;99.90
56878;DHT22;42765;44.764;19.676;2022-09-30T02:15:15;16.60;99.90
56878;DHT22;42765;44.764;19.676;2022-09-30T02:17:58;16.60;99.90
56878;DHT22;42765;44.764;19.676;2022-09-30T02:20:29;16.50;99.90
56878;DHT22;42765;44.764;19.676;2022-09-30T02:22:59;16.50;99.90
56878;DHT22;42765;44.764;19.676;2022-09-30T02:25:28;16.50;99.90
56878;DHT22;42765;44.764;19.676;2022-09-30T02:27:57;16.50;99.90
56878;DHT22;42765;44.764;19.676;2022-09-30T02:30:23;16.50;99.90
56878;DHT22;42765;44.764;19.676;2022-09-30T02:32:53;16.40;99.90
56878;DHT22;42765;44.764;19.676;2022-09-30T02:35:21;16.30;99.90
56878;DHT22;42765;44.764;19.676;2022-09-30T02:37:51;16.40;99.90
56878;DHT22;42765;44.764;19.676;2022-09-30T02:40:21;16.40;99.90
56878;DHT22;42765;44.764;19.676;2022-09-30T02:42:48;16.50;99.90
56878;DHT22;42765;44.764;19.676;2022-09-30T02:45:15;16.40;99.90
56878;DHT22;42765;44.764;19.676;2022-09-30T02:50:42;16.20;99.90
56878;DHT22;42765;44.764;19.676;2022-09-30T02:58:15;16.30;99.90
56878;DHT22;42765;44.764;19.676;2022-09-30T03:00:41;16.30;99.90
56878;DHT22;42765;44.764;19.676;2022-09-30T03:03:11;16.30;99.90
56878;DHT22;42765;44.764;19.676;2022-09-30T03:05:39;16.20;99.90
56878;DHT22;42765;44.764;19.676;2022-09-30T03:08:04;16.20;99.90
56878;DHT22;42765;44.764;19.676;2022-09-30T03:10:30;16.20;99.90
56878;DHT22;42765;44.764;19.676;2022-09-30T03:15:38;16.30;99.90
56878;DHT22;42765;44.764;19.676;2022-09-30T03:28:48;16.30;99.90
56878;DHT22;42765;44.764;19.676;2022-09-30T03:31:20;16.30;99.90
56878;DHT22;42765;44.764;19.676;2022-09-30T03:33:50;16.30;99.90
56878;DHT22;42765;44.764;19.676;2022-09-30T03:39:15;16.20;99.90
56878;DHT22;42765;44.764;19.676;2022-09-30T03:41:48;16.20;99.90
56878;DHT22;42765;44.764;19.676;2022-09-30T03:44:16;16.20;99.90
56878;DHT22;42765;44.764;19.676;2022-09-30T03:46:45;16.20;99.90
56878;DHT22;42765;44.764;19.676;2022-09-30T03:49:14;16.20;99.90
56878;DHT22;42765;44.764;19.676;2022-09-30T03:51:40;16.20;99.90
56878;DHT22;42765;44.764;19.676;2022-09-30T03:54:07;16.20;99.90
56878;DHT22;42765;44.764;19.676;2022-09-30T03:56:34;16.20;99.90
56878;DHT22;42765;44.764;19.676;2022-09-30T03:59:00;16.20;99.90
56878;DHT22;42765;44.764;19.676;2022-09-30T04:01:26;16.20;99.90
56878;DHT22;42765;44.764;19.676;2022-09-30T04:03:52;16.20;99.90
56878;DHT22;42765;44.764;19.676;2022-09-30T04:06:19;16.20;99.90
56878;DHT22;42765;44.764;19.676;2022-09-30T04:08:45;16.30;99.90
56878;DHT22;42765;44.764;19.676;2022-09-30T04:11:10;16.30;99.90
56878;DHT22;42765;44.764;19.676;2022-09-30T04:13:36;16.40;99.90
56878;DHT22;42765;44.764;19.676;2022-09-30T04:16:03;16.40;99.90
56878;DHT22;42765;44.764;19.676;2022-09-30T04:18:29;16.40;99.90
56878;DHT22;42765;44.764;19.676;2022-09-30T04:20:56;16.40;99.90
56878;DHT22;42765;44.764;19.676;2022-09-30T04:23:22;16.40;99.90
56878;DHT22;42765;44.764;19.676;2022-09-30T04:25:53;16.40;99.90
56878;DHT22;42765;44.764;19.676;2022-09-30T04:28:19;16.40;99.90
56878;DHT22;42765;44.764;19.676;2022-09-30T04:30:45;16.40;99.90
56878;DHT22;42765;44.764;19.676;2022-09-30T04:33:11;16.30;99.90
56878;DHT22;42765;44.764;19.676;2022-09-30T04:35:37;16.20;99.90
56878;DHT22;42765;44.764;19.676;2022-09-30T04:38:04;16.20;99.90
56878;DHT22;42765;44.764;19.676;2022-09-30T04:40:35;16.00;99.90
56878;DHT22;42765;44.764;19.676;2022-09-30T04:43:01;15.80;99.90
56878;DHT22;42765;44.764;19.676;2022-09-30T04:45:27;15.80;99.90
56878;DHT22;42765;44.764;19.676;2022-09-30T04:47:54;15.80;99.90
56878;DHT22;42765;44.764;19.676;2022-09-30T04:50:20;15.80;99.90
56878;DHT22;42765;44.764;19.676;2022-09-30T04:52:46;15.80;99.90
56878;DHT22;42765;44.764;19.676;2022-09-30T04:55:12;15.80;99.90
56878;DHT22;42765;44.764;19.676;2022-09-30T04:57:38;15.80;99.90
56878;DHT22;42765;44.764;19.676;2022-09-30T05:00:05;15.70;99.90
56878;DHT22;42765;44.764;19.676;2022-09-30T05:02:33;15.70;99.90
56878;DHT22;42765;44.764;19.676;2022-09-30T05:04:59;15.70;99.90
56878;DHT22;42765;44.764;19.676;2022-09-30T05:07:26;15.60;99.90
56878;DHT22;42765;44.764;19.676;2022-09-30T05:09:52;15.70;99.90
56878;DHT22;42765;44.764;19.676;2022-09-30T05:12:18;15.80;99.90
56878;DHT22;42765;44.764;19.676;2022-09-30T05:14:43;15.90;99.90
56878;DHT22;42765;44.764;19.676;2022-09-30T05:17:09;15.90;99.90
56878;DHT22;42765;44.764;19.676;2022-09-30T05:19:35;16.00;99.90
56878;DHT22;42765;44.764;19.676;2022-09-30T05:22:01;15.90;99.90
56878;DHT22;42765;44.764;19.676;2022-09-30T05:24:27;16.00;99.90
56878;DHT22;42765;44.764;19.676;2022-09-30T05:26:55;15.90;99.90
56878;DHT22;42765;44.764;19.676;2022-09-30T05:29:21;15.90;99.90
56878;DHT22;42765;44.764;19.676;2022-09-30T05:31:47;15.90;99.90
56878;DHT22;42765;44.764;19.676;2022-09-30T05:34:12;15.90;99.90
56878;DHT22;42765;44.764;19.676;2022-09-30T05:36:42;15.90;99.90
56878;DHT22;42765;44.764;19.676;2022-09-30T05:39:10;15.90;99.90
56878;DHT22;42765;44.764;19.676;2022-09-30T05:41:36;15.80;99.90
56878;DHT22;42765;44.764;19.676;2022-09-30T05:44:03;15.90;99.90
56878;DHT22;42765;44.764;19.676;2022-09-30T05:46:29;15.90;99.90
56878;DHT22;42765;44.764;19.676;2022-09-30T05:48:55;16.00;99.90
56878;DHT22;42765;44.764;19.676;2022-09-30T05:51:22;16.00;99.90
56878;DHT22;42765;44.764;19.676;2022-09-30T05:53:48;16.10;99.90
56878;DHT22;42765;44.764;19.676;2022-09-30T05:56:13;16.10;99.90
56878;DHT22;42765;44.764;19.676;2022-09-30T05:58:39;16.20;99.90
56878;DHT22;42765;44.764;19.676;2022-09-30T06:01:11;16.20;99.90
56878;DHT22;42765;44.764;19.676;2022-09-30T06:03:38;16.30;99.90
56878;DHT22;42765;44.764;19.676;2022-09-30T06:06:05;16.30;99.90
56878;DHT22;42765;44.764;19.676;2022-09-30T06:08:31;16.30;99.90
56878;DHT22;42765;44.764;19.676;2022-09-30T06:10:57;16.30;99.90
56878;DHT22;42765;44.764;19.676;2022-09-30T06:13:24;16.40;99.90
56878;DHT22;42765;44.764;19.676;2022-09-30T06:15:57;16.40;99.90
56878;DHT22;42765;44.764;19.676;2022-09-30T06:18:24;16.40;99.90
56878;DHT22;42765;44.764;19.676;2022-09-30T06:20:55;16.40;99.90
56878;DHT22;42765;44.764;19.676;2022-09-30T06:23:21;16.40;99.90
56878;DHT22;42765;44.764;19.676;2022-09-30T06:25:53;16.40;99.90
56878;DHT22;42765;44.764;19.676;2022-09-30T06:28:19;16.50;99.90
56878;DHT22;42765;44.764;19.676;2022-09-30T06:30:45;16.50;99.90
56878;DHT22;42765;44.764;19.676;2022-09-30T06:33:11;16.50;99.90
56878;DHT22;42765;44.764;19.676;2022-09-30T06:35:37;16.60;99.90
56878;DHT22;42765;44.764;19.676;2022-09-30T06:38:06;16.70;99.90
56878;DHT22;42765;44.764;19.676;2022-09-30T06:40:32;16.70;99.90
56878;DHT22;42765;44.764;19.676;2022-09-30T06:42:58;16.80;99.90
56878;DHT22;42765;44.764;19.676;2022-09-30T06:45:24;16.90;99.90
56878;DHT22;42765;44.764;19.676;2022-09-30T06:47:50;16.90;99.90
56878;DHT22;42765;44.764;19.676;2022-09-30T06:50:18;17.00;99.90
56878;DHT22;42765;44.764;19.676;2022-09-30T06:52:46;17.10;99.90
56878;DHT22;42765;44.764;19.676;2022-09-30T06:55:12;17.10;99.90
56878;DHT22;42765;44.764;19.676;2022-09-30T06:57:41;17.20;99.90
56878;DHT22;42765;44.764;19.676;2022-09-30T07:00:08;17.30;99.90
56878;DHT22;42765;44.764;19.676;2022-09-30T07:02:33;17.40;99.90
56878;DHT22;42765;44.764;19.676;2022-09-30T07:05:00;17.40;99.90
56878;DHT22;42765;44.764;19.676;2022-09-30T07:07:28;17.50;99.90
56878;DHT22;42765;44.764;19.676;2022-09-30T07:09:54;17.50;99.90
56878;DHT22;42765;44.764;19.676;2022-09-30T07:12:19;17.60;99.90
56878;DHT22;42765;44.764;19.676;2022-09-30T07:14:45;17.70;99.90
56878;DHT22;42765;44.764;19.676;2022-09-30T07:17:12;17.80;99.90
56878;DHT22;42765;44.764;19.676;2022-09-30T07:19:37;17.90;99.90
56878;DHT22;42765;44.764;19.676;2022-09-30T07:22:03;18.00;99.90
56878;DHT22;42765;44.764;19.676;2022-09-30T07:24:47;18.10;99.90
56878;DHT22;42765;44.764;19.676;2022-09-30T07:27:13;18.20;99.90
56878;DHT22;42765;44.764;19.676;2022-09-30T07:29:39;18.30;99.90
56878;DHT22;42765;44.764;19.676;2022-09-30T07:32:05;18.40;99.90
56878;DHT22;42765;44.764;19.676;2022-09-30T07:34:31;18.40;99.90
56878;DHT22;42765;44.764;19.676;2022-09-30T07:36:57;18.60;99.90
56878;DHT22;42765;44.764;19.676;2022-09-30T07:39:23;18.60;99.90
56878;DHT22;42765;44.764;19.676;2022-09-30T07:41:49;18.70;99.90
56878;DHT22;42765;44.764;19.676;2022-09-30T07:44:14;18.70;99.90
56878;DHT22;42765;44.764;19.676;2022-09-30T07:46:41;18.70;99.90
56878;DHT22;42765;44.764;19.676;2022-09-30T07:49:11;18.90;99.90
56878;DHT22;42765;44.764;19.676;2022-09-30T07:51:38;19.00;99.90
56878;DHT22;42765;44.764;19.676;2022-09-30T07:54:08;19.00;99.90
56878;DHT22;42765;44.764;19.676;2022-09-30T07:56:35;19.10;99.90
56878;DHT22;42765;44.764;19.676;2022-09-30T07:59:03;19.20;99.90
56878;DHT22;42765;44.764;19.676;2022-09-30T08:01:29;19.30;99.90
56878;DHT22;42765;44.764;19.676;2022-09-30T08:03:56;19.40;99.90
56878;DHT22;42765;44.764;19.676;2022-09-30T08:06:22;19.50;99.90
56878;DHT22;42765;44.764;19.676;2022-09-30T08:08:49;19.60;99.90
56878;DHT22;42765;44.764;19.676;2022-09-30T08:11:15;19.70;99.90
56878;DHT22;42765;44.764;19.676;2022-09-30T08:13:41;19.70;99.90
56878;DHT22;42765;44.764;19.676;2022-09-30T08:16:07;19.90;99.90
56878;DHT22;42765;44.764;19.676;2022-09-30T08:18:32;20.20;99.90
56878;DHT22;42765;44.764;19.676;2022-09-30T08:21:02;20.40;99.90
56878;DHT22;42765;44.764;19.676;2022-09-30T08:23:28;20.50;99.90
56878;DHT22;42765;44.764;19.676;2022-09-30T08:26:01;20.60;99.90
56878;DHT22;42765;44.764;19.676;2022-09-30T08:28:27;20.70;99.90
56878;DHT22;42765;44.764;19.676;2022-09-30T08:31:06;20.80;99.90
56878;DHT22;42765;44.764;19.676;2022-09-30T08:33:31;20.80;99.90
56878;DHT22;42765;44.764;19.676;2022-09-30T08:36:03;20.90;99.90
56878;DHT22;42765;44.764;19.676;2022-09-30T08:38:29;20.90;99.90
56878;DHT22;42765;44.764;19.676;2022-09-30T08:43:49;20.90;99.90
56878;DHT22;42765;44.764;19.676;2022-09-30T08:46:39;21.00;99.90
56878;DHT22;42765;44.764;19.676;2022-09-30T08:51:52;21.20;99.90
56878;DHT22;42765;44.764;19.676;2022-09-30T08:54:19;20.80;99.90
56878;DHT22;42765;44.764;19.676;2022-09-30T08:56:45;20.70;99.90
56878;DHT22;42765;44.764;19.676;2022-09-30T09:01:52;20.90;99.90
56878;DHT22;42765;44.764;19.676;2022-09-30T09:04:19;21.10;99.90
56878;DHT22;42765;44.764;19.676;2022-09-30T09:09:32;21.20;99.90
56878;DHT22;42765;44.764;19.676;2022-09-30T09:20:11;21.40;99.90
56878;DHT22;42765;44.764;19.676;2022-09-30T09:22:31;21.50;99.90
56878;DHT22;42765;44.764;19.676;2022-09-30T09:24:57;21.70;99.90
56878;DHT22;42765;44.764;19.676;2022-09-30T09:30:05;21.90;99.90
56878;DHT22;42765;44.764;19.676;2022-09-30T09:32:32;22.00;99.90
56878;DHT22;42765;44.764;19.676;2022-09-30T09:40:39;22.60;99.90
56878;DHT22;42765;44.764;19.676;2022-09-30T09:43:13;22.70;99.90
56878;DHT22;42765;44.764;19.676;2022-09-30T09:45:49;22.80;99.90
56878;DHT22;42765;44.764;19.676;2022-09-30T09:48:19;22.80;99.90
56878;DHT22;42765;44.764;19.676;2022-09-30T09:50:45;22.90;99.90
56878;DHT22;42765;44.764;19.676;2022-09-30T09:53:37;23.10;99.90
56878;DHT22;42765;44.764;19.676;2022-09-30T09:55:59;23.20;99.90
56878;DHT22;42765;44.764;19.676;2022-09-30T09:58:27;23.10;99.90
56878;DHT22;42765;44.764;19.676;2022-09-30T10:00:53;23.20;99.90
56878;DHT22;42765;44.764;19.676;2022-09-30T10:03:42;23.30;99.90
56878;DHT22;42765;44.764;19.676;2022-09-30T10:06:09;23.60;99.90
56878;DHT22;42765;44.764;19.676;2022-09-30T10:08:39;23.70;99.90
56878;DHT22;42765;44.764;19.676;2022-09-30T10:11:20;23.70;99.90
56878;DHT22;42765;44.764;19.676;2022-09-30T10:13:46;24.00;99.90
56878;DHT22;42765;44.764;19.676;2022-09-30T10:16:25;24.70;99.90
56878;DHT22;42765;44.764;19.676;2022-09-30T10:18:52;25.30;99.90
56878;DHT22;42765;44.764;19.676;2022-09-30T10:21:19;25.80;99.90
56878;DHT22;42765;44.764;19.676;2022-09-30T10:23:45;26.40;99.90
56878;DHT22;42765;44.764;19.676;2022-09-30T10:28:54;27.60;99.90
56878;DHT22;42765;44.764;19.676;2022-09-30T10:31:24;28.00;99.90
56878;DHT22;42765;44.764;19.676;2022-09-30T10:33:56;28.80;99.90
56878;DHT22;42765;44.764;19.676;2022-09-30T10:36:28;28.80;99.90
56878;DHT22;42765;44.764;19.676;2022-09-30T10:39:08;29.50;99.90
56878;DHT22;42765;44.764;19.676;2022-09-30T10:41:41;30.00;99.90
56878;DHT22;42765;44.764;19.676;2022-09-30T10:44:11;30.20;99.90
56878;DHT22;42765;44.764;19.676;2022-09-30T10:46:39;30.90;99.90
56878;DHT22;42765;44.764;19.676;2022-09-30T10:49:27;31.80;99.90
56878;DHT22;42765;44.764;19.676;2022-09-30T10:51:52;31.90;99.90
56878;DHT22;42765;44.764;19.676;2022-09-30T10:57:02;32.60;98.30
56878;DHT22;42765;44.764;19.676;2022-09-30T10:59:35;33.10;97.00
56878;DHT22;42765;44.764;19.676;2022-09-30T11:04:37;34.60;93.60
56878;DHT22;42765;44.764;19.676;2022-09-30T11:09:52;35.60;90.80
56878;DHT22;42765;44.764;19.676;2022-09-30T11:12:40;35.90;90.00
56878;DHT22;42765;44.764;19.676;2022-09-30T11:18:04;34.20;88.40
56878;DHT22;42765;44.764;19.676;2022-09-30T11:20:29;33.80;90.10
56878;DHT22;42765;44.764;19.676;2022-09-30T11:23:01;34.10;90.00
56878;DHT22;42765;44.764;19.676;2022-09-30T11:30:50;33.80;90.50
56878;DHT22;42765;44.764;19.676;2022-09-30T11:35:59;34.80;90.20
56878;DHT22;42765;44.764;19.676;2022-09-30T11:38:43;34.80;88.60
56878;DHT22;42765;44.764;19.676;2022-09-30T11:46:06;32.80;90.00
56878;DHT22;42765;44.764;19.676;2022-09-30T11:48:38;32.70;90.80
56878;DHT22;42765;44.764;19.676;2022-09-30T11:56:39;32.00;91.20
56878;DHT22;42765;44.764;19.676;2022-09-30T12:01:55;32.40;91.00
56878;DHT22;42765;44.764;19.676;2022-09-30T12:04:33;33.90;90.60
56878;DHT22;42765;44.764;19.676;2022-09-30T12:07:02;34.20;88.90
56878;DHT22;42765;44.764;19.676;2022-09-30T12:14:28;35.80;84.00
56878;DHT22;42765;44.764;19.676;2022-09-30T12:16:55;36.20;80.90
56878;DHT22;42765;44.764;19.676;2022-09-30T12:20:05;35.90;79.80
56878;DHT22;42765;44.764;19.676;2022-09-30T12:22:21;35.80;80.80
56878;DHT22;42765;44.764;19.676;2022-09-30T12:24:47;36.30;81.60
56878;DHT22;42765;44.764;19.676;2022-09-30T12:27:14;36.80;78.20
56878;DHT22;42765;44.764;19.676;2022-09-30T12:29:49;36.70;76.90
56878;DHT22;42765;44.764;19.676;2022-09-30T12:37:51;36.50;77.10
56878;DHT22;42765;44.764;19.676;2022-09-30T12:40:42;35.70;93.40
56878;DHT22;42765;44.764;19.676;2022-09-30T12:48:42;34.70;77.30
56878;DHT22;42765;44.764;19.676;2022-09-30T12:51:09;32.30;82.40
56878;DHT22;42765;44.764;19.676;2022-09-30T12:53:36;32.00;82.70
56878;DHT22;42765;44.764;19.676;2022-09-30T12:56:04;32.60;83.50
56878;DHT22;42765;44.764;19.676;2022-09-30T12:58:31;33.30;84.00
56878;DHT22;42765;44.764;19.676;2022-09-30T13:01:05;33.20;84.10
56878;DHT22;42765;44.764;19.676;2022-09-30T13:03:50;32.50;84.90
56878;DHT22;42765;44.764;19.676;2022-09-30T13:06:18;32.50;86.60
56878;DHT22;42765;44.764;19.676;2022-09-30T13:09:26;33.80;85.40
56878;DHT22;42765;44.764;19.676;2022-09-30T13:16:57;32.10;85.90
56878;DHT22;42765;44.764;19.676;2022-09-30T13:19:35;31.40;90.00
56878;DHT22;42765;44.764;19.676;2022-09-30T13:27:39;29.90;91.80
56878;DHT22;42765;44.764;19.676;2022-09-30T13:32:38;29.10;91.90
56878;DHT22;42765;44.764;19.676;2022-09-30T13:38:07;28.70;93.60
56878;DHT22;42765;44.764;19.676;2022-09-30T13:40:33;28.50;94.30
56878;DHT22;42765;44.764;19.676;2022-09-30T13:43:00;28.10;95.00
56878;DHT22;42765;44.764;19.676;2022-09-30T13:45:30;27.80;95.50
56878;DHT22;42765;44.764;19.676;2022-09-30T13:47:59;27.40;96.00
56878;DHT22;42765;44.764;19.676;2022-09-30T13:50:30;27.20;97.10
56878;DHT22;42765;44.764;19.676;2022-09-30T13:53:00;27.00;97.90
56878;DHT22;42765;44.764;19.676;2022-09-30T13:55:34;26.70;98.30
56878;DHT22;42765;44.764;19.676;2022-09-30T14:00:57;26.40;99.50
56878;DHT22;42765;44.764;19.676;2022-09-30T14:17:00;25.70;99.90
56878;DHT22;42765;44.764;19.676;2022-09-30T14:21:55;25.60;99.90
56878;DHT22;42765;44.764;19.676;2022-09-30T14:24:25;25.50;99.90
56878;DHT22;42765;44.764;19.676;2022-09-30T14:32:25;25.40;99.90
56878;DHT22;42765;44.764;19.676;2022-09-30T14:34:51;25.30;99.90
56878;DHT22;42765;44.764;19.676;2022-09-30T14:39:48;25.30;99.90
56878;DHT22;42765;44.764;19.676;2022-09-30T14:42:17;25.30;99.90
56878;DHT22;42765;44.764;19.676;2022-09-30T14:44:47;25.40;99.90
56878;DHT22;42765;44.764;19.676;2022-09-30T14:47:14;25.40;99.90
56878;DHT22;42765;44.764;19.676;2022-09-30T14:49:41;25.40;99.90
56878;DHT22;42765;44.764;19.676;2022-09-30T14:52:30;25.40;99.90
56878;DHT22;42765;44.764;19.676;2022-09-30T14:54:52;25.30;99.90
56878;DHT22;42765;44.764;19.676;2022-09-30T14:57:19;25.30;99.90
56878;DHT22;42765;44.764;19.676;2022-09-30T14:59:48;25.30;99.90
56878;DHT22;42765;44.764;19.676;2022-09-30T15:02:15;25.10;99.90
56878;DHT22;42765;44.764;19.676;2022-09-30T15:04:47;25.10;99.90
56878;DHT22;42765;44.764;19.676;2022-09-30T15:07:13;24.90;99.90
56878;DHT22;42765;44.764;19.676;2022-09-30T15:09:42;24.90;99.90
56878;DHT22;42765;44.764;19.676;2022-09-30T15:12:11;24.80;99.90
56878;DHT22;42765;44.764;19.676;2022-09-30T15:14:47;24.70;99.90
56878;DHT22;42765;44.764;19.676;2022-09-30T15:17:17;24.60;99.90
56878;DHT22;42765;44.764;19.676;2022-09-30T15:19:42;24.50;99.90
56878;DHT22;42765;44.764;19.676;2022-09-30T15:22:08;24.30;99.90
56878;DHT22;42765;44.764;19.676;2022-09-30T15:24:35;24.30;99.90
56878;DHT22;42765;44.764;19.676;2022-09-30T15:27:01;24.20;99.90
56878;DHT22;42765;44.764;19.676;2022-09-30T15:29:27;24.10;99.90
56878;DHT22;42765;44.764;19.676;2022-09-30T15:32:13;24.00;99.90
56878;DHT22;42765;44.764;19.676;2022-09-30T15:34:39;24.00;99.90
56878;DHT22;42765;44.764;19.676;2022-09-30T15:37:12;23.90;99.90
56878;DHT22;42765;44.764;19.676;2022-09-30T15:39:44;23.90;99.90
56878;DHT22;42765;44.764;19.676;2022-09-30T15:42:31;23.80;99.90
56878;DHT22;42765;44.764;19.676;2022-09-30T15:45:00;23.70;99.90
56878;DHT22;42765;44.764;19.676;2022-09-30T15:47:26;23.70;99.90
56878;DHT22;42765;44.764;19.676;2022-09-30T15:49:55;23.60;99.90
56878;DHT22;42765;44.764;19.676;2022-09-30T15:54:53;23.50;99.90
56878;DHT22;42765;44.764;19.676;2022-09-30T15:57:35;23.50;99.90
56878;DHT22;42765;44.764;19.676;2022-09-30T16:00:04;23.40;99.90
56878;DHT22;42765;44.764;19.676;2022-09-30T16:02:33;23.40;99.90
56878;DHT22;42765;44.764;19.676;2022-09-30T16:04:58;23.40;99.90
56878;DHT22;42765;44.764;19.676;2022-09-30T16:07:27;23.30;99.90
56878;DHT22;42765;44.764;19.676;2022-09-30T16:09:53;23.20;99.90
56878;DHT22;42765;44.764;19.676;2022-09-30T16:12:22;23.20;99.90
56878;DHT22;42765;44.764;19.676;2022-09-30T16:15:05;23.20;99.90
56878;DHT22;42765;44.764;19.676;2022-09-30T16:17:36;23.10;99.90
56878;DHT22;42765;44.764;19.676;2022-09-30T16:20:09;23.00;99.90
56878;DHT22;42765;44.764;19.676;2022-09-30T16:27:36;22.90;99.90
56878;DHT22;42765;44.764;19.676;2022-09-30T16:30:02;22.90;99.90
56878;DHT22;42765;44.764;19.676;2022-09-30T16:32:30;22.80;99.90
56878;DHT22;42765;44.764;19.676;2022-09-30T16:34:57;22.70;99.90
56878;DHT22;42765;44.764;19.676;2022-09-30T16:37:23;22.70;99.90
56878;DHT22;42765;44.764;19.676;2022-09-30T16:39:48;22.60;99.90
56878;DHT22;42765;44.764;19.676;2022-09-30T16:42:15;22.50;99.90
56878;DHT22;42765;44.764;19.676;2022-09-30T16:44:41;22.40;99.90
56878;DHT22;42765;44.764;19.676;2022-09-30T16:47:10;22.40;99.90
56878;DHT22;42765;44.764;19.676;2022-09-30T16:49:36;22.40;99.90
56878;DHT22;42765;44.764;19.676;2022-09-30T16:52:02;22.40;99.90
56878;DHT22;42765;44.764;19.676;2022-09-30T16:54:27;22.40;99.90
56878;DHT22;42765;44.764;19.676;2022-09-30T16:56:53;22.40;99.90
56878;DHT22;42765;44.764;19.676;2022-09-30T16:59:19;22.30;99.90
56878;DHT22;42765;44.764;19.676;2022-09-30T17:01:44;22.20;99.90
56878;DHT22;42765;44.764;19.676;2022-09-30T17:04:10;22.10;99.90
56878;DHT22;42765;44.764;19.676;2022-09-30T17:06:36;21.90;99.90
56878;DHT22;42765;44.764;19.676;2022-09-30T17:09:05;21.90;99.90
56878;DHT22;42765;44.764;19.676;2022-09-30T17:11:31;21.90;99.90
56878;DHT22;42765;44.764;19.676;2022-09-30T17:13:58;21.80;99.90
56878;DHT22;42765;44.764;19.676;2022-09-30T17:16:25;21.70;99.90
56878;DHT22;42765;44.764;19.676;2022-09-30T17:18:51;21.70;99.90
56878;DHT22;42765;44.764;19.676;2022-09-30T17:21:17;21.70;99.90
56878;DHT22;42765;44.764;19.676;2022-09-30T17:23:43;21.60;99.90
56878;DHT22;42765;44.764;19.676;2022-09-30T17:26:08;21.60;99.90
56878;DHT22;42765;44.764;19.676;2022-09-30T17:28:34;21.60;99.90
56878;DHT22;42765;44.764;19.676;2022-09-30T17:31:00;21.60;99.90
56878;DHT22;42765;44.764;19.676;2022-09-30T17:33:29;21.50;99.90
56878;DHT22;42765;44.764;19.676;2022-09-30T17:35:56;21.40;99.90
56878;DHT22;42765;44.764;19.676;2022-09-30T17:38:23;21.40;99.90
56878;DHT22;42765;44.764;19.676;2022-09-30T17:40:49;21.50;99.90
56878;DHT22;42765;44.764;19.676;2022-09-30T17:43:33;21.40;99.90
56878;DHT22;42765;44.764;19.676;2022-09-30T17:45:59;21.40;99.90
56878;DHT22;42765;44.764;19.676;2022-09-30T17:48:25;21.30;99.90
56878;DHT22;42765;44.764;19.676;2022-09-30T17:50:51;21.30;99.90
56878;DHT22;42765;44.764;19.676;2022-09-30T17:53:20;21.20;99.90
56878;DHT22;42765;44.764;19.676;2022-09-30T17:55:46;21.20;99.90
56878;DHT22;42765;44.764;19.676;2022-09-30T17:58:13;21.20;99.90
56878;DHT22;42765;44.764;19.676;2022-09-30T18:00:39;21.20;99.90
56878;DHT22;42765;44.764;19.676;2022-09-30T18:03:05;21.20;99.90
56878;DHT22;42765;44.764;19.676;2022-09-30T18:05:33;21.20;99.90
56878;DHT22;42765;44.764;19.676;2022-09-30T18:07:58;21.20;99.90
56878;DHT22;42765;44.764;19.676;2022-09-30T18:10:24;21.20;99.90
56878;DHT22;42765;44.764;19.676;2022-09-30T18:12:51;21.20;99.90
56878;DHT22;42765;44.764;19.676;2022-09-30T18:15:17;21.20;99.90
56878;DHT22;42765;44.764;19.676;2022-09-30T18:17:44;21.20;99.90
56878;DHT22;42765;44.764;19.676;2022-09-30T18:20:10;21.10;99.90
56878;DHT22;42765;44.764;19.676;2022-09-30T18:22:36;21.10;99.90
56878;DHT22;42765;44.764;19.676;2022-09-30T18:25:01;21.10;99.90
56878;DHT22;42765;44.764;19.676;2022-09-30T18:27:46;21.00;99.90
56878;DHT22;42765;44.764;19.676;2022-09-30T18:30:12;21.00;99.90
56878;DHT22;42765;44.764;19.676;2022-09-30T18:32:37;21.00;99.90